Time;durP1;ratioP1;P1;durP2;ratioP2;P2;SDS_P1;SDS_P2;PMS_P1;PMS_P2;Temp;Humidity;BMP_temperature;BMP_pressure;BME280_temperature;BME280_humidity;BME280_pressure;Samples;Min_cycle;Max_cycle;Signal;HPM_P1;HPM_P2
2023/08/16 00:01:58;;;;;;;7.40;6.00;;;;;;;-128.00;-1.00;-1.00;85914;293;4505240;-36
2023/08/16 00:04:24;;;;;;;6.50;5.90;;;;;;;-128.00;-1.00;-1.00;85925;293;4505022;-35
2023/08/16 00:06:50;;;;;;;7.40;6.50;;;;;;;-128.00;-1.00;-1.00;85800;293;4504004;-35
2023/08/16 00:09:16;;;;;;;7.20;6.20;;;;;;;-128.00;-1.00;-1.00;85919;293;4503794;-35
2023/08/16 00:11:42;;;;;;;7.70;5.70;;;;;;;-128.00;-1.00;-1.00;85915;293;4503545;-30
2023/08/16 00:14:07;;;;;;;10.40;5.70;;;;;;;-128.00;-1.00;-1.00;85826;293;4503506;-35
2023/08/16 00:16:33;;;;;;;7.20;6.20;;;;;;;-128.00;-1.00;-1.00;85741;293;4504484;-35
2023/08/16 00:18:59;;;;;;;9.60;7.00;;;;;;;-128.00;-1.00;-1.00;85819;293;4503669;-31
2023/08/16 00:21:25;;;;;;;6.70;5.90;;;;;;;-128.00;-1.00;-1.00;85849;293;4505452;-30
2023/08/16 00:23:50;;;;;;;13.50;11.70;;;;;;;-128.00;-1.00;-1.00;85772;293;4505337;-35
2023/08/16 00:26:16;;;;;;;12.50;11.30;;;;;;;-128.00;-1.00;-1.00;85591;293;4505666;-31
2023/08/16 00:28:42;;;;;;;12.10;10.80;;;;;;;-128.00;-1.00;-1.00;85810;293;4503777;-35
2023/08/16 00:31:08;;;;;;;9.60;8.60;;;;;;;-128.00;-1.00;-1.00;85882;293;4503666;-35
2023/08/16 00:33:33;;;;;;;8.70;7.80;;;;;;;-128.00;-1.00;-1.00;85677;294;4503595;-34
2023/08/16 00:35:59;;;;;;;8.00;6.90;;;;;;;-128.00;-1.00;-1.00;85769;293;4505578;-39
2023/08/16 01:19:31;;;;;;;10.00;9.10;;;;;;;;;;101457;292;542920;-34
2023/08/16 01:22:04;;;;;;;10.40;8.50;;;;;;;;;;101308;292;536897;-34
2023/08/16 01:24:42;;;;;;;6.20;5.70;;;;;;;;;;101742;281;24136;-34
2023/08/16 01:27:07;;;;;;;7.60;6.10;;;;;;;;;;101729;291;22609;-30
2023/08/16 01:29:33;;;;;;;9.60;7.90;;;;;;;;;;101765;291;22836;-32
2023/08/16 01:31:58;;;;;;;10.10;8.60;;;;;;;;;;101695;291;24131;-34
2023/08/16 01:34:24;;;;;;;8.90;7.50;;;;;;;;;;101734;291;22570;-34
2023/08/16 01:36:49;;;;;;;16.10;7.70;;;;;;;;;;101828;291;22879;-34
2023/08/16 01:39:15;;;;;;;8.60;7.70;;;;;;;;;;101682;291;22669;-34
2023/08/16 01:41:42;;;;;;;8.70;7.90;;;;;;;;;;101761;291;23004;-30
2023/08/16 01:44:08;;;;;;;10.30;7.40;;;;;;;;;;101839;291;22571;-31
2023/08/16 01:46:33;;;;;;;19.30;8.10;;;;;;;;;;101786;291;22879;-38
2023/08/16 01:48:59;;;;;;;10.20;7.30;;;;;;;;;;101717;291;24253;-31
2023/08/16 01:51:25;;;;;;;8.50;7.80;;;;;;;;;;101691;291;22519;-34
2023/08/16 01:53:54;;;;;;;11.10;7.00;;;;;;;;;;101781;291;23024;-30
2023/08/16 01:56:19;;;;;;;8.20;7.30;;;;;;;;;;101771;291;22666;-32
2023/08/16 01:58:45;;;;;;;9.00;8.00;;;;;;;;;;101815;291;22604;-35
2023/08/16 02:01:11;;;;;;;12.10;7.60;;;;;;;;;;101682;291;24258;-35
2023/08/16 02:03:36;;;;;;;9.60;8.40;;;;;;;;;;101815;291;22567;-34
2023/08/16 02:06:02;;;;;;;13.30;11.60;;;;;;;;;;101782;291;22876;-34
2023/08/16 02:08:27;;;;;;;12.10;7.40;;;;;;;;;;101552;291;22581;-34
2023/08/16 02:10:53;;;;;;;8.90;8.10;;;;;;;;;;101657;291;22707;-29
2023/08/16 02:13:18;;;;;;;10.90;9.20;;;;;;;;;;101798;291;23007;-32
2023/08/16 02:15:44;;;;;;;11.60;8.40;;;;;;;;;;101804;291;22706;-34
2023/08/16 02:18:10;;;;;;;10.10;9.00;;;;;;;;;;101822;291;22665;-30
2023/08/16 02:20:38;;;;;;;10.60;9.50;;;;;;;;;;101741;291;22707;-30
2023/08/16 02:23:04;;;;;;;17.70;9.30;;;;;;;;;;101737;291;24206;-34
2023/08/16 02:25:30;;;;;;;30.50;7.30;;;;;;;;;;101588;291;22655;-33
2023/08/16 02:27:55;;;;;;;10.30;7.70;;;;;;;;;;101711;291;22572;-30
2023/08/16 02:30:21;;;;;;;13.00;8.50;;;;;;;;;;101694;291;22879;-30
2023/08/16 02:32:46;;;;;;;19.50;9.10;;;;;;;;;;101682;291;22573;-31
2023/08/16 02:35:12;;;;;;;8.70;7.80;;;;;;;;;;101674;291;22571;-34
2023/08/16 02:37:37;;;;;;;9.20;7.20;;;;;;;;;;101834;291;23034;-34
2023/08/16 02:40:03;;;;;;;10.90;7.80;;;;;;;;;;101764;293;22880;-34
2023/08/16 02:42:29;;;;;;;11.00;8.50;;;;;;;;;;101790;291;24202;-31
2023/08/16 02:44:55;;;;;;;9.20;8.00;;;;;;;;;;101742;291;22600;-37
2023/08/16 02:47:20;;;;;;;9.30;7.80;;;;;;;;;;101568;291;22938;-34
2023/08/16 02:49:48;;;;;;;10.60;8.60;;;;;;;;;;101790;291;22573;-29
2023/08/16 02:52:13;;;;;;;8.10;7.30;;;;;;;;;;101673;291;22661;-34
2023/08/16 02:54:39;;;;;;;10.40;7.90;;;;;;;;;;101671;291;22671;-30
2023/08/16 02:57:05;;;;;;;10.90;8.50;;;;;;;;;;101741;291;25190;-30
2023/08/16 02:59:38;;;;;;;14.80;8.30;;;;;;;;;;101715;291;22879;-31
2023/08/16 03:02:03;;;;;;;9.80;8.90;;;;;;;;;;101812;291;24143;-35
2023/08/16 03:04:29;;;;;;;10.60;8.30;;;;;;;;;;101822;291;22633;-31
2023/08/16 03:06:55;;;;;;;8.90;7.30;;;;;;;;;;101747;291;22671;-30
2023/08/16 03:09:20;;;;;;;8.70;7.90;;;;;;;;;;101704;291;22565;-31
2023/08/16 03:11:46;;;;;;;10.10;8.50;;;;;;;;;;101873;291;22568;-35
2023/08/16 03:14:11;;;;;;;10.00;8.90;;;;;;;;;;101773;291;22567;-34
2023/08/16 03:16:37;;;;;;;10.60;9.10;;;;;;;;;;101738;291;22612;-35
2023/08/16 03:19:03;;;;;;;9.60;8.20;;;;;;;;;;101723;291;23571;-34
2023/08/16 03:21:29;;;;;;;10.40;9.10;;;;;;;;;;101886;291;24240;-30
2023/08/16 03:23:54;;;;;;;10.10;8.30;;;;;;;;;;101601;293;22879;-30
2023/08/16 03:26:20;;;;;;;8.10;5.70;;;;;;;;;;101796;291;22690;-35
2023/08/16 03:28:46;;;;;;;14.60;8.20;;;;;;;;;;101770;291;22834;-31
2023/08/16 03:31:11;;;;;;;11.60;8.10;;;;;;;;;;101669;291;22671;-30
2023/08/16 03:33:37;;;;;;;22.60;9.10;;;;;;;;;;101722;291;22568;-35
2023/08/16 03:36:02;;;;;;;11.40;8.90;;;;;;;;;;101754;291;22574;-35
2023/08/16 03:38:28;;;;;;;18.20;9.50;;;;;;;;;;101768;279;22911;-34
2023/08/16 03:40:54;;;;;;;9.90;8.20;;;;;;;;;;101804;291;24253;-32
2023/08/16 03:43:19;;;;;;;11.80;9.00;;;;;;;;;;101697;291;22658;-34
2023/08/16 03:45:44;;;;;;;14.00;10.90;;;;;;;;;;101725;291;22578;-39
2023/08/16 03:48:10;;;;;;;23.80;9.90;;;;;;;;;;101731;291;22571;-36
2023/08/16 03:50:36;;;;;;;14.80;10.20;;;;;;;;;;101850;291;24247;-36
2023/08/16 03:53:02;;;;;;;11.60;9.40;;;;;;;;;;101744;291;22574;-31
2023/08/16 03:55:27;;;;;;;9.90;9.00;;;;;;;;;;101666;291;24237;-31
2023/08/16 03:57:53;;;;;;;10.90;9.00;;;;;;;;;;101784;291;22672;-36
2023/08/16 04:00:19;;;;;;;11.40;8.60;;;;;;;;;;101754;291;22655;-35
2023/08/16 04:02:45;;;;;;;12.90;11.30;;;;;;;;;;101752;291;22879;-35
2023/08/16 04:05:11;;;;;;;18.60;11.40;;;;;;;;;;101643;291;22574;-30
2023/08/16 04:07:37;;;;;;;14.20;11.90;;;;;;;;;;101675;291;22959;-35
2023/08/16 04:10:03;;;;;;;15.20;13.10;;;;;;;;;;101748;291;22668;-33
2023/08/16 04:12:32;;;;;;;11.20;9.80;;;;;;;;;;101801;291;22587;-36
2023/08/16 04:14:58;;;;;;;9.50;8.60;;;;;;;;;;101737;291;22877;-36
2023/08/16 04:17:23;;;;;;;9.50;8.30;;;;;;;;;;101776;291;22596;-31
2023/08/16 04:19:49;;;;;;;11.50;9.00;;;;;;;;;;101714;291;24111;-29
2023/08/16 04:22:14;;;;;;;13.00;10.40;;;;;;;;;;101809;291;24337;-34
2023/08/16 04:24:40;;;;;;;10.70;9.10;;;;;;;;;;101781;291;22582;-34
2023/08/16 04:27:06;;;;;;;15.60;9.40;;;;;;;;;;101764;291;22580;-32
2023/08/16 04:29:31;;;;;;;10.10;9.00;;;;;;;;;;101751;291;22986;-33
2023/08/16 04:31:57;;;;;;;18.20;10.20;;;;;;;;;;101713;291;22603;-30
2023/08/16 04:34:22;;;;;;;11.00;9.90;;;;;;;;;;101781;291;22574;-30
2023/08/16 04:36:48;;;;;;;10.40;9.40;;;;;;;;;;101704;291;24141;-35
2023/08/16 04:39:13;;;;;;;13.20;9.40;;;;;;;;;;101738;291;22879;-30
2023/08/16 04:41:40;;;;;;;10.90;9.80;;;;;;;;;;101835;291;24258;-34
2023/08/16 04:44:05;;;;;;;16.60;8.20;;;;;;;;;;101807;291;22684;-31
2023/08/16 04:46:31;;;;;;;9.30;8.50;;;;;;;;;;101757;291;22580;-31
2023/08/16 04:48:56;;;;;;;9.50;8.50;;;;;;;;;;101751;291;22605;-35
2023/08/16 04:51:22;;;;;;;7.60;6.90;;;;;;;;;;101767;291;22982;-32
2023/08/16 04:53:48;;;;;;;12.10;8.70;;;;;;;;;;101716;291;24257;-35
2023/08/16 04:56:13;;;;;;;8.00;7.20;;;;;;;;;;101721;291;22962;-32
2023/08/16 04:58:39;;;;;;;11.00;8.30;;;;;;;;;;101830;291;23303;-35
2023/08/16 05:01:05;;;;;;;7.00;5.90;;;;;;;;;;101701;291;22570;-35
2023/08/16 05:03:30;;;;;;;8.30;7.00;;;;;;;;;;101727;291;22873;-34
2023/08/16 05:05:59;;;;;;;11.40;10.20;;;;;;;;;;101744;291;22570;-31
2023/08/16 05:08:25;;;;;;;11.90;7.60;;;;;;;;;;101841;291;22669;-32
2023/08/16 05:10:50;;;;;;;8.50;7.20;;;;;;;;;;101723;291;22883;-35
2023/08/16 05:13:17;;;;;;;9.80;6.50;;;;;;;;;;101724;291;22991;-32
2023/08/16 05:15:43;;;;;;;8.30;6.90;;;;;;;;;;101711;291;22605;-35
2023/08/16 05:18:09;;;;;;;8.40;6.20;;;;;;;;;;101816;291;22571;-38
2023/08/16 05:20:35;;;;;;;13.30;7.30;;;;;;;;;;101820;291;24135;-32
2023/08/16 05:23:00;;;;;;;9.70;6.30;;;;;;;;;;101707;291;22572;-32
2023/08/16 05:25:26;;;;;;;7.40;5.00;;;;;;;;;;101657;291;22781;-32
2023/08/16 05:27:51;;;;;;;7.60;6.40;;;;;;;;;;101743;291;22690;-35
2023/08/16 05:30:17;;;;;;;7.00;5.50;;;;;;;;;;101794;291;22572;-34
2023/08/16 05:32:43;;;;;;;5.90;5.30;;;;;;;;;;101730;291;22574;-31
2023/08/16 05:35:09;;;;;;;14.10;6.00;;;;;;;;;;101677;291;22690;-35
2023/08/16 05:37:34;;;;;;;6.20;4.70;;;;;;;;;;101728;291;22667;-38
2023/08/16 05:40:00;;;;;;;6.80;5.40;;;;;;;;;;101728;291;24135;-37
2023/08/16 05:42:28;;;;;;;8.90;5.60;;;;;;;;;;101785;291;22883;-34
2023/08/16 05:44:55;;;;;;;4.60;4.20;;;;;;;;;;101739;291;22576;-35
2023/08/16 05:47:20;;;;;;;5.60;5.20;;;;;;;;;;101617;293;22604;-37
2023/08/16 05:49:47;;;;;;;8.20;5.70;;;;;;;;;;101783;291;24142;-38
2023/08/16 05:52:13;;;;;;;8.10;5.60;;;;;;;;;;101858;291;22927;-32
2023/08/16 05:54:38;;;;;;;7.30;5.80;;;;;;;;;;101723;291;22575;-32
2023/08/16 05:57:04;;;;;;;6.40;5.20;;;;;;;;;;101722;291;22978;-33
2023/08/16 05:59:29;;;;;;;5.90;5.30;;;;;;;;;;101786;291;22603;-35
2023/08/16 06:01:55;;;;;;;9.90;5.60;;;;;;;;;;101710;291;22581;-35
2023/08/16 06:04:21;;;;;;;7.00;4.60;;;;;;;;;;101660;293;22572;-35
2023/08/16 06:06:46;;;;;;;7.40;6.50;;;;;;;;;;101697;291;22671;-32
2023/08/16 06:09:12;;;;;;;5.00;4.20;;;;;;;;;;101760;291;22761;-32
2023/08/16 06:11:38;;;;;;;5.30;4.50;;;;;;;;;;101623;293;25145;-32
2023/08/16 06:14:03;;;;;;;5.20;4.70;;;;;;;;;;101721;291;24138;-36
2023/08/16 06:16:29;;;;;;;5.50;4.70;;;;;;;;;;101613;291;22846;-33
2023/08/16 06:18:55;;;;;;;7.40;4.60;;;;;;;;;;101696;291;22702;-32
2023/08/16 06:21:21;;;;;;;5.10;4.50;;;;;;;;;;101727;291;22665;-35
2023/08/16 06:23:47;;;;;;;11.10;4.70;;;;;;;;;;101719;291;22572;-32
2023/08/16 06:26:14;;;;;;;8.00;5.80;;;;;;;;;;101782;291;22752;-32
2023/08/16 06:28:39;;;;;;;14.90;5.50;;;;;;;;;;101734;291;22861;-36
2023/08/16 06:31:05;;;;;;;6.00;4.10;;;;;;;;;;101700;291;22569;-32
2023/08/16 06:33:30;;;;;;;5.30;4.90;;;;;;;;;;101784;291;22574;-32
2023/08/16 06:35:56;;;;;;;9.50;5.40;;;;;;;;;;101710;288;22876;-36
2023/08/16 06:38:22;;;;;;;4.20;3.70;;;;;;;;;;101721;291;24071;-35
2023/08/16 06:40:49;;;;;;;6.60;4.30;;;;;;;;;;101696;291;22880;-32
2023/08/16 06:43:15;;;;;;;10.20;6.20;;;;;;;;;;101753;291;22903;-38
2023/08/16 06:45:41;;;;;;;5.00;4.60;;;;;;;;;;101730;291;23405;-32
2023/08/16 06:48:07;;;;;;;6.30;4.70;;;;;;;;;;101751;291;23039;-36
2023/08/16 06:50:33;;;;;;;8.10;4.50;;;;;;;;;;101752;291;22796;-35
2023/08/16 06:52:58;;;;;;;6.40;5.30;;;;;;;;;;101789;291;22669;-37
2023/08/16 06:55:24;;;;;;;6.80;4.40;;;;;;;;;;101762;291;22570;-34
2023/08/16 06:57:50;;;;;;;4.90;4.40;;;;;;;;;;101533;291;24067;-34
2023/08/16 07:00:17;;;;;;;7.30;4.50;;;;;;;;;;101688;291;22721;-34
2023/08/16 07:02:43;;;;;;;5.90;3.70;;;;;;;;;;101734;291;22606;-38
2023/08/16 07:05:12;;;;;;;7.30;5.10;;;;;;;;;;101600;293;22567;-31
2023/08/16 07:07:37;;;;;;;3.20;2.90;;;;;;;;;;101681;291;22572;-35
2023/08/16 07:10:04;;;;;;;5.40;4.70;;;;;;;;;;101646;291;22599;-35
2023/08/16 07:12:30;;;;;;;5.30;3.50;;;;;;;;;;101744;291;22571;-31
2023/08/16 07:14:55;;;;;;;6.80;3.70;;;;;;;;;;101704;291;22571;-31
2023/08/16 07:17:21;;;;;;;6.70;4.00;;;;;;;;;;101763;291;22572;-35
2023/08/16 07:19:50;;;;;;;4.40;3.40;;;;;;;;;;101724;291;22576;-31
2023/08/16 07:22:16;;;;;;;3.90;3.30;;;;;;;;;;101602;293;24162;-31
2023/08/16 07:24:42;;;;;;;4.60;3.20;;;;;;;;;;101687;291;24740;-31
2023/08/16 07:27:08;;;;;;;3.80;3.40;;;;;;;;;;101646;291;22572;-36
2023/08/16 07:29:33;;;;;;;3.30;3.00;;;;;;;;;;101757;291;22572;-36
2023/08/16 07:32:00;;;;;;;3.80;3.40;;;;;;;;;;101703;291;22665;-32
2023/08/16 07:34:25;;;;;;;4.60;3.60;;;;;;;;;;101726;291;22597;-36
2023/08/16 07:36:51;;;;;;;5.00;3.80;;;;;;;;;;101681;291;22574;-32
2023/08/16 07:39:16;;;;;;;3.80;3.10;;;;;;;;;;101696;291;22877;-36
2023/08/16 07:41:42;;;;;;;4.10;3.80;;;;;;;;;;101739;291;22744;-32
2023/08/16 07:44:09;;;;;;;3.40;3.10;;;;;;;;;;101681;291;23103;-32
2023/08/16 07:46:34;;;;;;;6.60;3.70;;;;;;;;;;101684;291;22570;-32
2023/08/16 07:49:00;;;;;;;3.40;3.00;;;;;;;;;;101722;291;22985;-32
2023/08/16 07:51:26;;;;;;;4.50;3.70;;;;;;;;;;101706;291;22768;-33
2023/08/16 07:53:51;;;;;;;3.10;2.80;;;;;;;;;;101677;291;23838;-32
2023/08/16 07:56:17;;;;;;;4.10;3.50;;;;;;;;;;101577;293;22571;-32
2023/08/16 07:58:42;;;;;;;3.50;3.20;;;;;;;;;;101724;291;22570;-32
2023/08/16 08:01:09;;;;;;;5.50;3.70;;;;;;;;;;101756;291;22655;-36
2023/08/16 08:03:36;;;;;;;3.30;2.70;;;;;;;;;;101789;291;22667;-36
2023/08/16 08:06:02;;;;;;;4.50;4.10;;;;;;;;;;101616;291;22604;-36
2023/08/16 08:08:27;;;;;;;8.60;3.70;;;;;;;;;;101690;291;22681;-36
2023/08/16 08:10:53;;;;;;;3.80;3.30;;;;;;;;;;101711;291;22569;-36
2023/08/16 08:13:18;;;;;;;3.90;3.60;;;;;;;;;;101699;291;22577;-32
2023/08/16 08:15:45;;;;;;;7.60;4.10;;;;;;;;;;101668;291;22973;-32
2023/08/16 08:18:11;;;;;;;4.50;3.50;;;;;;;;;;101758;291;24261;-32
2023/08/16 08:20:37;;;;;;;3.50;3.20;;;;;;;;;;101767;291;22565;-35
2023/08/16 08:23:03;;;;;;;4.30;3.10;;;;;;;;;;101741;291;22985;-31
2023/08/16 08:25:29;;;;;;;3.00;2.80;;;;;;;;;;101762;291;22671;-32
2023/08/16 08:27:55;;;;;;;3.90;3.10;;;;;;;;;;101813;291;23870;-32
2023/08/16 08:30:21;;;;;;;4.10;3.70;;;;;;;;;;101755;291;22614;-34
2023/08/16 08:32:46;;;;;;;4.00;3.40;;;;;;;;;;101717;291;22583;-33
2023/08/16 08:35:12;;;;;;;4.30;3.40;;;;;;;;;;101765;291;22569;-34
2023/08/16 08:37:38;;;;;;;2.90;2.70;;;;;;;;;;101676;291;22574;-35
2023/08/16 08:40:05;;;;;;;3.70;3.40;;;;;;;;;;101730;291;22570;-31
2023/08/16 08:42:31;;;;;;;3.20;3.00;;;;;;;;;;101629;291;22705;-31
2023/08/16 08:44:56;;;;;;;3.80;3.10;;;;;;;;;;101701;291;22569;-31
2023/08/16 08:47:22;;;;;;;10.30;3.40;;;;;;;;;;101738;291;22571;-31
2023/08/16 08:49:48;;;;;;;3.50;3.10;;;;;;;;;;101712;291;24114;-34
2023/08/16 08:52:14;;;;;;;2.90;2.60;;;;;;;;;;101741;287;22699;-31
2023/08/16 08:54:39;;;;;;;3.20;2.80;;;;;;;;;;101811;291;22880;-34
2023/08/16 08:57:05;;;;;;;5.80;3.20;;;;;;;;;;101684;291;22572;-34
2023/08/16 08:59:32;;;;;;;3.90;3.60;;;;;;;;;;101731;291;22882;-35
2023/08/16 09:01:58;;;;;;;3.70;3.40;;;;;;;;;;101802;279;23983;-35
2023/08/16 09:04:25;;;;;;;3.10;2.80;;;;;;;;;;101739;291;22563;-35
2023/08/16 09:06:50;;;;;;;2.30;2.10;;;;;;;;;;101768;291;22688;-39
2023/08/16 09:09:16;;;;;;;3.60;3.30;;;;;;;;;;101759;291;23982;-31
2023/08/16 09:11:42;;;;;;;4.50;3.70;;;;;;;;;;101690;291;23032;-35
2023/08/16 09:14:08;;;;;;;3.60;2.50;;;;;;;;;;101853;291;22596;-35
2023/08/16 09:16:34;;;;;;;3.10;2.60;;;;;;;;;;101727;291;22801;-35
2023/08/16 09:18:59;;;;;;;4.60;2.50;;;;;;;;;;101683;291;22580;-35
2023/08/16 09:21:27;;;;;;;3.70;2.10;;;;;;;;;;101714;291;22679;-31
2023/08/16 09:23:56;;;;;;;4.80;2.50;;;;;;;;;;101116;291;710484;-35
2023/08/16 09:26:22;;;;;;;2.70;2.30;;;;;;;;;;101703;291;22573;-31
2023/08/16 09:28:54;;;;;;;7.70;2.40;;;;;;;;;;101697;291;22682;-37
2023/08/16 09:31:20;;;;;;;3.40;2.30;;;;;;;;;;101756;291;22669;-32
2023/08/16 09:33:46;;;;;;;1.80;1.50;;;;;;;;;;101614;293;22582;-32
2023/08/16 09:36:11;;;;;;;3.20;2.60;;;;;;;;;;101698;279;25171;-32
2023/08/16 09:38:41;;;;;;;2.70;1.90;;;;;;;;;;101685;291;22574;-32
2023/08/16 09:41:12;;;;;;;2.60;2.30;;;;;;;;;;101775;291;22669;-35
2023/08/16 09:43:37;;;;;;;3.10;2.80;;;;;;;;;;101795;291;22984;-35
2023/08/16 09:46:03;;;;;;;5.70;2.60;;;;;;;;;;101712;291;22877;-34
2023/08/16 09:48:29;;;;;;;9.20;2.90;;;;;;;;;;101824;291;25358;-32
2023/08/16 09:51:01;;;;;;;3.20;2.90;;;;;;;;;;101726;291;22669;-34
2023/08/16 09:53:27;;;;;;;3.10;2.70;;;;;;;;;;101881;291;22671;-33
2023/08/16 09:55:53;;;;;;;2.80;2.60;;;;;;;;;;101730;291;22623;-33
2023/08/16 09:58:18;;;;;;;4.70;3.40;;;;;;;;;;101704;291;24138;-36
2023/08/16 10:00:44;;;;;;;3.60;3.20;;;;;;;;;;101773;280;22576;-37
2023/08/16 10:03:10;;;;;;;7.20;2.80;;;;;;;;;;101689;291;22905;-33
2023/08/16 10:05:36;;;;;;;3.30;2.80;;;;;;;;;;101702;291;22671;-34
2023/08/16 10:08:04;;;;;;;3.00;2.80;;;;;;;;;;101751;291;22882;-33
2023/08/16 10:10:30;;;;;;;3.40;2.90;;;;;;;;;;101824;291;22985;-37
2023/08/16 10:12:56;;;;;;;4.60;2.90;;;;;;;;;;101791;291;22669;-37
2023/08/16 10:15:21;;;;;;;2.40;2.20;;;;;;;;;;101648;291;22574;-33
2023/08/16 10:17:47;;;;;;;2.70;2.50;;;;;;;;;;101774;291;22777;-35
2023/08/16 10:20:22;;;;;;;3.10;2.70;;;;;;;;;;101794;291;23005;-31
2023/08/16 10:22:50;;;;;;;2.80;2.60;;;;;;;;;;101671;291;24141;-31
2023/08/16 10:25:23;;;;;;;4.80;3.10;;;;;;;;;;101756;291;22567;-31
2023/08/16 10:27:48;;;;;;;3.10;2.80;;;;;;;;;;101709;291;22670;-31
2023/08/16 10:30:18;;;;;;;3.90;3.40;;;;;;;;;;101710;291;22584;-32
2023/08/16 10:32:44;;;;;;;3.10;2.70;;;;;;;;;;101758;291;22629;-31
2023/08/16 10:35:09;;;;;;;3.50;2.40;;;;;;;;;;101685;291;22882;-35
2023/08/16 10:37:35;;;;;;;5.90;3.20;;;;;;;;;;101700;291;22679;-35
2023/08/16 10:40:01;;;;;;;6.30;3.30;;;;;;;;;;101706;291;22794;-32
2023/08/16 10:42:27;;;;;;;7.60;2.50;;;;;;;;;;101814;291;22876;-32
2023/08/16 10:44:52;;;;;;;2.80;2.60;;;;;;;;;;101800;291;22576;-35
2023/08/16 10:47:30;;;;;;;15.20;3.40;;;;;;;;;;101735;291;22660;-35
2023/08/16 10:49:56;;;;;;;2.90;2.20;;;;;;;;;;101549;291;22611;-32
2023/08/16 10:52:28;;;;;;;3.40;3.00;;;;;;;;;;101614;291;22576;-34
2023/08/16 10:54:57;;;;;;;6.20;3.10;;;;;;;;;;101826;291;22607;-35
2023/08/16 10:57:25;;;;;;;3.70;3.40;;;;;;;;;;101763;291;24141;-36
2023/08/16 11:00:00;;;;;;;2.20;2.00;;;;;;;;;;101713;291;22984;-32
2023/08/16 11:02:29;;;;;;;2.40;2.20;;;;;;;;;;101658;279;25262;-32
2023/08/16 11:04:55;;;;;;;2.70;2.50;;;;;;;;;;101645;291;23324;-32
2023/08/16 11:07:21;;;;;;;3.30;2.40;;;;;;;;;;101655;291;22567;-32
2023/08/16 11:09:46;;;;;;;3.90;3.00;;;;;;;;;;101784;291;22575;-32
2023/08/16 11:12:14;;;;;;;3.70;1.90;;;;;;;;;;101684;291;22817;-32
2023/08/16 11:14:40;;;;;;;3.00;2.70;;;;;;;;;;101732;291;23961;-36
2023/08/16 11:17:05;;;;;;;5.50;2.50;;;;;;;;;;101771;291;22883;-36
2023/08/16 11:19:31;;;;;;;11.30;2.50;;;;;;;;;;101719;291;22671;-32
2023/08/16 11:21:57;;;;;;;3.10;2.70;;;;;;;;;;101803;291;22576;-33
2023/08/16 11:24:23;;;;;;;9.80;3.10;;;;;;;;;;101764;291;22883;-33
2023/08/16 11:26:48;;;;;;;9.90;2.80;;;;;;;;;;101796;291;22845;-32
2023/08/16 11:29:14;;;;;;;2.70;2.30;;;;;;;;;;101806;291;23071;-33
2023/08/16 11:31:39;;;;;;;3.50;3.00;;;;;;;;;;101556;280;22796;-36
2023/08/16 11:34:10;;;;;;;4.10;3.60;;;;;;;;;;101744;291;22591;-33
2023/08/16 11:36:36;;;;;;;3.50;2.00;;;;;;;;;;101853;283;22883;-36
2023/08/16 11:39:02;;;;;;;3.90;3.50;;;;;;;;;;101813;291;23007;-36
2023/08/16 11:41:27;;;;;;;4.20;2.50;;;;;;;;;;101732;291;25230;-33
2023/08/16 11:43:59;;;;;;;4.00;3.00;;;;;;;;;;101705;291;22707;-36
2023/08/16 11:46:24;;;;;;;2.30;2.10;;;;;;;;;;101826;291;22671;-37
2023/08/16 11:48:50;;;;;;;2.50;2.30;;;;;;;;;;101686;291;22958;-36
2023/08/16 11:51:16;;;;;;;3.00;2.60;;;;;;;;;;101738;291;22686;-36
2023/08/16 11:53:42;;;;;;;4.30;3.50;;;;;;;;;;101767;291;22616;-31
2023/08/16 11:56:08;;;;;;;3.20;3.00;;;;;;;;;;101740;291;22751;-32
2023/08/16 11:58:46;;;;;;;6.50;3.40;;;;;;;;;;101760;291;22574;-36
2023/08/16 12:01:14;;;;;;;3.40;3.10;;;;;;;;;;101791;291;22876;-36
2023/08/16 12:03:41;;;;;;;3.00;2.70;;;;;;;;;;101727;291;22570;-36
2023/08/16 12:06:10;;;;;;;3.20;2.80;;;;;;;;;;101757;291;22197;-32
2023/08/16 12:08:36;;;;;;;2.90;2.60;;;;;;;;;;101855;291;24312;-36
2023/08/16 12:11:02;;;;;;;11.30;3.70;;;;;;;;;;101717;291;22572;-35
2023/08/16 12:13:28;;;;;;;7.00;2.40;;;;;;;;;;101754;291;22593;-36
2023/08/16 12:15:54;;;;;;;3.00;2.80;;;;;;;;;;101819;291;24138;-36
2023/08/16 12:18:20;;;;;;;5.30;4.20;;;;;;;;;;101759;280;23256;-32
2023/08/16 12:20:49;;;;;;;3.30;3.00;;;;;;;;;;101731;291;22565;-33
2023/08/16 12:23:15;;;;;;;2.50;2.30;;;;;;;;;;101801;291;24152;-37
2023/08/16 12:25:41;;;;;;;2.50;2.30;;;;;;;;;;101834;291;22660;-32
2023/08/16 12:28:07;;;;;;;4.40;2.80;;;;;;;;;;101752;291;23221;-32
2023/08/16 12:30:33;;;;;;;6.00;3.70;;;;;;;;;;101740;291;22581;-32
2023/08/16 12:32:59;;;;;;;2.50;2.30;;;;;;;;;;101709;291;22650;-35
2023/08/16 12:35:24;;;;;;;3.90;3.40;;;;;;;;;;101747;291;22978;-32
2023/08/16 13:16:49;;;;;;;6.90;2.00;;;;;;;;;;101336;292;542755;-35
2023/08/16 13:19:15;;;;;;;3.00;2.50;;;;;;;;;;101109;294;544159;-37
2023/08/16 13:21:40;;;;;;;1.90;1.50;;;;;;;;;;101640;292;22670;-31
2023/08/16 13:24:07;;;;;;;1.90;1.30;;;;;;;;;;101664;292;24207;-31
2023/08/16 13:26:33;;;;;;;2.80;2.40;;;;;;;;;;101646;284;22985;-31
2023/08/16 13:28:59;;;;;;;6.10;2.90;;;;;;;;;;101564;292;22573;-31
2023/08/16 13:31:24;;;;;;;8.70;3.10;;;;;;;;;;101755;292;22588;-34
2023/08/16 13:33:50;;;;;;;2.80;2.50;;;;;;;;;;101527;292;22767;-35
2023/08/16 13:36:16;;;;;;;2.50;2.30;;;;;;;;;;101447;282;22665;-31
2023/08/16 13:38:41;;;;;;;5.10;2.30;;;;;;;;;;101612;292;22876;-31
2023/08/16 13:41:07;;;;;;;10.10;3.00;;;;;;;;;;101632;292;22574;-32
2023/08/16 13:43:32;;;;;;;4.20;2.60;;;;;;;;;;101672;292;23077;-36
2023/08/16 13:45:58;;;;;;;3.50;3.10;;;;;;;;;;101692;292;22649;-36
2023/08/16 13:48:24;;;;;;;3.10;2.30;;;;;;;;;;101812;292;22876;-38
2023/08/16 13:50:50;;;;;;;4.30;2.90;;;;;;;;;;101654;292;22174;-32
2023/08/16 13:53:15;;;;;;;2.90;2.50;;;;;;;;;;101722;292;22970;-35
2023/08/16 13:55:43;;;;;;;3.30;2.30;;;;;;;;;;101680;292;22765;-35
2023/08/16 13:58:08;;;;;;;3.60;3.20;;;;;;;;;;101622;292;24139;-32
2023/08/16 14:00:34;;;;;;;3.70;3.30;;;;;;;;;;101708;292;22603;-32
2023/08/16 14:02:59;;;;;;;2.60;2.30;;;;;;;;;;101612;292;24253;-35
2023/08/16 14:05:25;;;;;;;2.90;2.70;;;;;;;;;;101684;292;22882;-32
2023/08/16 14:07:50;;;;;;;2.30;2.10;;;;;;;;;;101605;292;24139;-35
2023/08/16 14:10:16;;;;;;;3.40;2.30;;;;;;;;;;101679;292;22876;-35
2023/08/16 14:12:42;;;;;;;3.50;2.80;;;;;;;;;;101651;292;23464;-36
2023/08/16 14:15:08;;;;;;;5.50;3.00;;;;;;;;;;101716;292;22578;-34
2023/08/16 14:17:33;;;;;;;2.90;2.50;;;;;;;;;;101694;292;22584;-34
2023/08/16 14:19:58;;;;;;;5.70;3.50;;;;;;;;;;101773;292;22590;-31
2023/08/16 14:22:24;;;;;;;6.70;3.30;;;;;;;;;;101862;292;23001;-35
2023/08/16 14:24:49;;;;;;;18.20;3.70;;;;;;;;;;101718;292;22653;-33
2023/08/16 14:27:15;;;;;;;2.90;2.60;;;;;;;;;;101774;292;22652;-36
2023/08/16 14:29:41;;;;;;;3.10;2.70;;;;;;;;;;101699;292;22737;-37
2023/08/16 14:32:07;;;;;;;3.00;2.60;;;;;;;;;;101826;292;22749;-33
2023/08/16 14:34:32;;;;;;;18.80;3.00;;;;;;;;;;101728;292;24250;-32
2023/08/16 14:36:58;;;;;;;7.70;5.90;;;;;;;;;;101820;292;22670;-35
2023/08/16 14:39:24;;;;;;;3.10;2.90;;;;;;;;;;101659;292;22571;-32
2023/08/16 14:41:50;;;;;;;5.30;3.70;;;;;;;;;;101776;292;22576;-35
2023/08/16 14:44:15;;;;;;;8.10;3.10;;;;;;;;;;101724;292;24138;-33
2023/08/16 14:46:41;;;;;;;10.80;3.20;;;;;;;;;;101720;292;22577;-35
2023/08/16 14:49:07;;;;;;;4.90;2.50;;;;;;;;;;101650;292;22574;-31
2023/08/16 14:51:32;;;;;;;3.40;2.70;;;;;;;;;;101690;292;22585;-36
2023/08/16 14:53:59;;;;;;;3.40;3.10;;;;;;;;;;101886;292;22896;-32
2023/08/16 14:56:24;;;;;;;5.80;3.70;;;;;;;;;;101792;292;22666;-36
2023/08/16 14:58:50;;;;;;;2.50;2.30;;;;;;;;;;101656;292;22576;-32
2023/08/16 15:01:16;;;;;;;3.20;2.70;;;;;;;;;;101750;292;22852;-36
2023/08/16 15:03:41;;;;;;;10.30;3.30;;;;;;;;;;101767;292;22572;-36
2023/08/16 15:06:07;;;;;;;4.40;3.20;;;;;;;;;;101615;292;22700;-32
2023/08/16 15:08:36;;;;;;;3.30;3.10;;;;;;;;;;101709;292;22699;-36
2023/08/16 15:11:11;;;;;;;4.40;3.40;;;;;;;;;;101704;292;22576;-32
2023/08/16 15:13:37;;;;;;;3.80;2.70;;;;;;;;;;101587;295;25262;-32
2023/08/16 15:16:03;;;;;;;3.10;2.80;;;;;;;;;;101665;292;22930;-32
2023/08/16 15:18:28;;;;;;;3.60;3.00;;;;;;;;;;101629;292;22545;-32
2023/08/16 15:20:54;;;;;;;4.50;3.90;;;;;;;;;;101590;292;24107;-33
2023/08/16 15:23:24;;;;;;;3.30;3.00;;;;;;;;;;101696;281;22636;-32
2023/08/16 15:25:50;;;;;;;2.30;2.10;;;;;;;;;;101715;292;22575;-32
2023/08/16 15:28:16;;;;;;;4.90;3.00;;;;;;;;;;101823;292;22882;-32
2023/08/16 15:30:42;;;;;;;2.70;2.50;;;;;;;;;;101744;292;22574;-35
2023/08/16 15:33:10;;;;;;;2.80;2.00;;;;;;;;;;101709;292;24189;-35
2023/08/16 15:35:36;;;;;;;3.40;2.90;;;;;;;;;;101781;292;22879;-32
2023/08/16 15:38:06;;;;;;;4.70;3.60;;;;;;;;;;101830;292;25169;-32
2023/08/16 15:40:35;;;;;;;5.90;1.80;;;;;;;;;;101809;292;22570;-32
2023/08/16 15:43:00;;;;;;;6.60;3.70;;;;;;;;;;101752;292;22577;-31